Sunday, December 16, 2018, 3:08 PM GMT
Back to Local

CYTR, Trenton, Ont.

Location: , , Canada Lat: 44.117
Local Time: 3:08 PM GMT (15:08 GMT) Lon: -77.533
Time Zone: GMT Elev: 278 ft

Show me the last for .
Show Coded

Time T Td Feel RH Dir Speed Gust Alt SLP Vis Weather Sky Remarks
2018-12-16 14:00 32 28 29 86 50° 3 - 30.11 30.13 15 SCT150 OVC200 None
2018-12-16 13:00 32 28 29 86 60° 3 - 30.10 30.11 15 BKN150 OVC200 None
2018-12-16 12:00 30 28 24 92 50° 6 - 30.11 30.12 15 OVC220 None
2018-12-16 11:00 30 28 22 92 50° 9 - 30.12 30.14 15 OVC250 None
2018-12-16 10:00 30 28 23 92 50° 8 - 30.14 30.15 15 OVC250 None
2018-12-16 09:00 30 28 23 92 50° 8 - 30.14 30.16 15 BKN250 None
2018-12-16 08:00 28 27 20 92 50° 8 - 30.16 30.18 15 SCT250 None
2018-12-16 07:00 30 28 22 92 50° 9 - 30.17 30.19 15 BKN250 None
2018-12-16 06:00 30 28 23 92 50° 8 - 30.20 30.21 15 BKN250 None
2018-12-16 05:00 27 27 21 100 30° 5 - 30.24 30.25 15 SCT250 None
2018-12-16 04:00 30 28 27 92 50° 3 - 30.26 30.28 15 FEW160 BKN250 None
2018-12-16 03:00 32 28 29 86 60° 3 - 30.27 30.28 15 SCT160 BKN250 None
2018-12-16 02:00 30 28 25 92 10° 5 - 30.26 30.28 15 SCT160 BKN250 None
2018-12-16 01:00 32 28 27 86 30° 5 - 30.25 30.27 15 BKN160 BKN250 None
2018-12-16 00:00 34 30 31 86 60° 3 - 30.27 30.28 15 SCT160 OVC250 None
2018-12-15 23:00 32 30 29 92 30° 3 - 30.25 30.27 15 SCT160 OVC200 None
2018-12-15 22:00 34 32 30 93 20° 5 - 30.24 30.25 15 SCT160 BKN180 OVC250 None
2018-12-15 21:00 37 32 34 80 50° 5 - 30.23 30.24 15 BKN160 BKN240 None
2018-12-15 20:00 39 32 37 75 80° 3 - 30.23 30.24 15 FEW023 BKN180 BKN240 None
2018-12-15 19:00 39 32 35 75 100° 6 - 30.24 30.25 15 SCT023 OVC250 None
2018-12-15 18:40 39 34 36 80 90° 5 - 30.24 30.24 15 BKN019 OVC250 None
2018-12-15 18:00 41 34 38 75 100° 5 - 30.23 30.24 15 FEW019 OVC250 None
2018-12-15 17:00 39 34 35 80 50° 6 - 30.23 30.24 15 FEW015 OVC250 None
2018-12-15 16:00 39 36 35 86 40° 6 - 30.25 30.27 15 OVC250 None

Support USWX by starting your Amazon purchase here.